NCAR-RAP Real-Time Weather Data

Output produced by METARs form (19 June 2019  10:41 UTC)
found at http://weather.rap.ucar.edu/surface/
 
KPVD 191028Z 03003KT 3SM BR SCT007 OVC016 19/18 A2987 RMK AO2 T01890183 $
KPVD 190951Z 02005KT 3SM BR BKN008 OVC017 19/19 A2987 RMK AO2 SLP114 T01890189 $
KPVD 190851Z 35003KT 7SM OVC006 19/14 A2987 RMK AO2 SLP113 T01890144 55002 $
KPVD 190751Z 36004KT 8SM OVC008 19/16 A2987 RMK AO2 SLP113 T01890161 $
KPVD 190726Z 35004KT 7SM BKN007 OVC019 18/16 A2987 RMK AO2 T01830156 $
KPVD 190712Z 36004KT 7SM SCT007 OVC020 18/16 A2986 RMK AO2 T01830156 $
KPVD 190651Z 01004KT 8SM SCT011 OVC020 18/13 A2987 RMK AO2 SLP113 T01830133 $
KPVD 190637Z 36006KT 9SM BKN011 OVC021 18/12 A2987 RMK AO2 T01830122 $
KPVD 190551Z 03003KT 10SM OVC007 18/10 A2987 RMK AO2 RAE0455 SLP115 P0000 60018 T01830100 10189 20183 56004 $
KPVD 190547Z 02004KT 9SM OVC005 18/16 A2988 RMK AO2 RAE0455 P0000 $
KPVD 190519Z 01004KT 10SM BKN004 BKN050 OVC065 18/15 A2988 RMK AO2 RAE0455 P0000 T01830150 $
KPVD 190451Z 05004KT 6SM -RA BKN005 OVC065 18/14 A2987 RMK AO2 RAE22B37 SLP116 P0001 T01830144 402330178 $
KPVD 190427Z 01003KT 9SM OVC004 18/18 A2989 RMK AO2 RAE22 LAST P0001 T01830178 $
KPVD 190344Z 05005KT 2 1/2SM -RA BR FEW004 BKN039 OVC050 18/18 A2989 RMK AO2 P0005 T01830178 $
KPVD 190251Z 04003KT 3SM RA BR SCT006 BKN035 OVC050 18/18 A2990 RMK AO2 SLP124 P0002 60011 T01830178 55001
KPVD 190244Z 05004KT 5SM -RA BR FEW006 BKN035 OVC065 18/18 A2990 RMK AO2 P0001 T01830178
KPVD 190151Z 04003KT 6SM -RA BR BKN006 BKN017 OVC065 18/18 A2990 RMK AO2 SLP124 P0006 T01830178
KPVD 190051Z 03004KT 5SM -RA BR FEW004 BKN008 OVC045 18/18 A2990 RMK AO2 SLP124 P0003 T01830178
KPVD 190041Z 04003KT 5SM -RA BR FEW004 BKN008 OVC050 18/18 A2990 RMK AO2 P0003 T01830178
KPVD 190031Z 08003KT 4SM -RA BR FEW004 SCT008 OVC050 18/17 A2990 RMK AO2 P0003 T01830172
KPVD 182351Z 00000KT 8SM -RA OVC006 18/16 A2990 RMK AO2 RAE2253B12 SLP125 P0000 60007 T01830161 10200 20183 55008
KPVD 182251Z 16005KT 10SM -RA OVC005 18/16 A2990 RMK AO2 SLP125 P0001 T01830161
KPVD 182151Z 17005KT 9SM -RA OVC007 18/16 A2991 RMK AO2 SLP127 P0004 T01830161
KPVD 182051Z 19004KT 10SM -RA OVC005 18/17 A2993 RMK AO2 SLP134 P0000 60002 T01830172 56012
KPVD 181951Z 17007KT 10SM -RA OVC007 19/17 A2993 RMK AO2 SLP136 P0001 T01890172
KPVD 181935Z 17008KT 9SM -RA BKN007 BKN031 OVC120 19/15 A2994 RMK AO2 P0001 T01940150
KPVD 181851Z 14007KT 10SM -RA SCT007 BKN043 OVC110 19/18 A2995 RMK AO2 SLP141 P0001 T01940183
KPVD 181843Z 15007KT 7SM -RA SCT008 BKN090 OVC110 19/18 A2995 RMK AO2 P0001 T01940183
KPVD 181834Z 15007KT 7SM -RA BKN008 BKN036 OVC070 19/18 A2995 RMK AO2 P0001 T01940183
KPVD 181751Z 17008KT 7SM -RA SCT006 OVC043 19/17 A2996 RMK AO2 SLP145 P0000 60000 T01940167 10211 20189 58005
KPVD 181651Z 15009KT 6SM -RA BR SCT005 BKN028 OVC040 19/17 A2997 RMK AO2 RAB30 SLP148 P0000 T01890167
KPVD 181615Z 15007KT 10SM SCT007 OVC032 20/16 A2998 RMK AO2 T02000161
KPVD 181600Z 15008KT 10SM BKN007 BKN025 OVC050 21/14 A2998 RMK AO2 T02060139
KPVD 181551Z 16007KT 10SM SCT008 BKN025 OVC050 21/17 A2998 RMK AO2 RAE43 SLP150 P0000 T02060167
KPVD 181459Z 15005KT 7SM -RA SCT009 BKN028 OVC080 21/15 A2997 RMK AO2 P0000 T02060150
KPVD 181451Z 15005KT 7SM -RA BKN009 BKN013 OVC027 21/17 A2998 RMK AO2 RAB23 SLP150 P0000 60000 T02110167 58002
KPVD 181411Z 00000KT 10SM SCT008 OVC025 21/14 A2998 RMK AO2 T02060144
KPVD 181359Z 17003KT 10SM BKN008 OVC025 21/14 A2998 RMK AO2 T02060144
KPVD 181351Z 19003KT 10SM SCT008 OVC024 21/15 A2998 RMK AO2 SLP153 T02060150
KPVD 181312Z 20005KT 5SM HZ FEW005 BKN023 BKN050 20/17 A2999 RMK AO2 T02000167
KPVD 181251Z 20006KT 5SM HZ FEW005 SCT021 BKN055 OVC300 19/17 A2998 RMK AO2 SLP152 T01940167
KPVD 181249Z 20004KT 5SM HZ FEW005 BKN055 BKN080 19/17 A2998 RMK AO2